Loyal, Oklahoma
Current Conditions -  °F | °C
As of 9:35 PM on Saturday 22 Nov 2014 (Local Time) from KJWG Reporting Station
Scattered Clouds Scattered Clouds  
Wind Chill: 54°   Ceiling: Unl
Heat Index: 54°   Visibility: 10mi
Dew Point: 54°   Wind: 13mph
Humidity: 100%   Direction: 170°S
Pressure: 29.7"   Gusts: 20mph
Location:  35.97°N, 98.12°W
Report Text: KJWG 230335Z AUTO 17011G17KT 10SM SCT010 12/12 A2970 RMK AO2 T01200120
Loading
Personal Weather Stations






























Interactive Weather Map New forecast layout! Learn more

10-Day Weather Forecast

Advertisements
Track Severe Weather on mobile